Huvudsida
METAR-TAF:

METAR-TAF

Flygplatser :

Machatjkala, Ryssland

latitud: 42-49-01N, longitud: 047-39-08E, höjd: 4 m

Aktuellt väderrapport

Denna rapport gjordes för 10 minuter sedan, klockan 11:00 UTC
Vind 17 kt från nord/nordväst
Temperatur 31°C
Fuktighet 40%
Tryck 1009 hPa
Sikt 10 km eller mer

METAR: URML 141100Z 33009MPS 9999 NSC 31/16 Q1009 R32/01//70 NOSIG RMK QFE757/1009

Tid: 14:10 (11:10 UTC)

Väderprognos

Denna rapport gjordes för 3 timmar och 10 minuter sedan, klockan 08:00 UTC
Prognos gäller från 14 kl. 09 UTC till 14 kl. 18 UTC
Vind 14 kt från nord i byarna ända upp till 27 kt
Sikt 10 km eller mer
Spridda moln på en höjd av 2500 ft
Spridda moln på en höjd av 5000 ft, Cumulonimbus.
Temporärt
från 14 kl. 09 UTC till 14 kl. 15 UTC
Vind 19 kt varierande vindriktning i byarna ända upp till 35 kt
Sikt: 6000 m
Brutna moln på en höjd av 4000 ft, Cumulonimbus.
åska, lätt regn,

TAF: URML 140800Z 1409/1418 35007G14MPS 9999 SCT025 SCT050CB TEMPO 1409/1415 VRB10G18MPS 6000 -TSRA BKN040CB

Aktuella väderrapporter och prognoser från 4000 flygplatser (METAR- och TAF-rapporter).

De tillgängliga stationerna syns som gula och röda prickar på kartan.

För musen över prickarna för att se namnen på stationerna.

Klicka sedan för att få väderrapporter och prognoser.

För att ändra kartan: Klicka på de gröna knapparna med ett svart kors på för att zooma in; den gröna knappen med ett streck på för att zooma ut; eller på de gröna pilarna för angränsande kartor.


METAR-TAF: